PWSweather.com
Personal Weather Stations
Station Observations
ZL1DX1M
Mt. Roskill, Auckland, AK 1041

Mt. RoskillAuckland, AK 1041

Lat: -36.9, Lon: 174.74

Elevation: 54

Station Type:

http://www.sanctuaryweather.co.nz

Latest ConditionsUpdated 7:30:17 PM GMT+12 Monday, Sep 1, 2014
Currently Today's Max Today's Min Today's Average
Temperature 52.4°F11.3°C 52.8°F11.6°C 51.4°F10.8°C 52.4°F11.3°C
Dew Point 51.3°F10.7°C 51.7°F10.9°C 50.0°F10.0°C 51.2°F10.7°C
Winds 2.2 mph E3.5 kmh E 8.6 mph SE13.8 kmh SE - 4.4 mph 7.1 kmh
Wind Gusts 3.0 mph4.8 kmh 15.0 mph24.1 kmh - -
Humidity 96% 96% 95% 96%
Pressure 29.82 in1009.8 mb 29.87 in1011.5 mb 29.82 in1009.8 mb -
Precipitation - 2.34 in59.4 mm - -
Hour Temp Dew Point Humidity Winds Wind Gusts Pressure Precip Precip Rate Daily Precip Total
07:30 PM 52.4°F11.3°C 51.3°F10.7°C 96% 2.2 mph E3.5 kmh E 3.0 mph4.8 kmh 29.82 in1009.8 mb 0.01 in0.3 mm 0.04 in/hr1.0 mm/hr 2.34 in59.4 mm
07:15 PM 52.4°F11.3°C 51.3°F10.7°C 96% 1.6 mph SSE2.6 kmh SSE 7.0 mph11.3 kmh 29.82 in1009.8 mb 0.01 in0.3 mm 0.04 in/hr1.0 mm/hr 2.33 in59.2 mm
07:00 PM 52.4°F11.3°C 51.3°F10.7°C 96% 3.4 mph E5.5 kmh E 4.0 mph6.4 kmh 29.82 in1009.8 mb 0.02 in0.5 mm 0.03 in/hr0.8 mm/hr 2.33 in59.2 mm
06:45 PM 52.3°F11.3°C 51.2°F10.7°C 96% 2.5 mph S4.0 kmh S 6.0 mph9.7 kmh 29.82 in1009.8 mb 0.02 in0.5 mm 0.08 in/hr2.0 mm/hr 2.32 in58.9 mm
06:30 PM 52.4°F11.3°C 51.3°F10.7°C 96% 5.0 mph ESE8.0 kmh ESE 8.0 mph12.9 kmh 29.82 in1009.8 mb 0.01 in0.3 mm 0.04 in/hr1.0 mm/hr 2.30 in58.4 mm
06:15 PM 52.5°F11.4°C 51.4°F10.8°C 96% 2.6 mph SSE4.2 kmh SSE 7.0 mph11.3 kmh 29.82 in1009.8 mb 0.01 in0.3 mm 0.04 in/hr1.0 mm/hr 2.29 in58.2 mm
06:00 PM 52.5°F11.4°C 51.4°F10.8°C 96% 1.9 mph SE3.1 kmh SE 3.0 mph4.8 kmh 29.82 in1009.8 mb 0.02 in0.5 mm 0.03 in/hr0.8 mm/hr 2.28 in57.9 mm
05:45 PM 52.6°F11.4°C 51.5°F10.8°C 96% 1.3 mph SE2.1 kmh SE 3.0 mph4.8 kmh 29.82 in1009.8 mb 0.01 in0.3 mm 0.04 in/hr1.0 mm/hr 2.27 in57.7 mm
05:30 PM 52.5°F11.4°C 51.4°F10.8°C 96% 1.4 mph SE2.3 kmh SE 4.0 mph6.4 kmh 29.82 in1009.8 mb 0.01 in0.3 mm 0.04 in/hr1.0 mm/hr 2.26 in57.4 mm
05:15 PM 52.5°F11.4°C 51.4°F10.8°C 96% 3.1 mph SE5.0 kmh SE 8.0 mph12.9 kmh 29.82 in1009.8 mb 0.00 in0.0 mm 0.00 in/hr0.0 mm/hr 2.25 in57.2 mm
05:00 PM 52.6°F11.4°C 51.5°F10.8°C 96% 4.1 mph SE6.6 kmh SE 11.0 mph17.7 kmh 29.82 in1009.8 mb 0.02 in0.5 mm 0.03 in/hr0.8 mm/hr 2.25 in57.2 mm
04:45 PM 52.6°F11.4°C 51.5°F10.8°C 96% 4.8 mph SE7.7 kmh SE 13.0 mph20.9 kmh 29.82 in1009.8 mb 0.01 in0.3 mm 0.04 in/hr1.0 mm/hr 2.24 in56.9 mm
04:30 PM 52.5°F11.4°C 51.4°F10.8°C 96% 5.3 mph ESE8.5 kmh ESE 9.0 mph14.5 kmh 29.82 in1009.8 mb 0.02 in0.5 mm 0.08 in/hr2.0 mm/hr 2.23 in56.6 mm
04:15 PM 52.5°F11.4°C 51.4°F10.8°C 96% 5.4 mph E8.7 kmh E 10.0 mph16.1 kmh 29.82 in1009.8 mb 0.02 in0.5 mm 0.08 in/hr2.0 mm/hr 2.22 in56.4 mm
04:00 PM 52.5°F11.4°C 51.4°F10.8°C 96% 8.5 mph ESE13.7 kmh ESE 13.0 mph20.9 kmh 29.82 in1009.8 mb 0.01 in0.3 mm 0.01 in/hr0.3 mm/hr 2.21 in56.1 mm
03:45 PM 52.6°F11.4°C 51.5°F10.8°C 96% 7.5 mph SE12.1 kmh SE 15.0 mph24.1 kmh 29.82 in1009.8 mb 0.02 in0.5 mm 0.08 in/hr2.0 mm/hr 2.20 in55.9 mm
03:30 PM 52.8°F11.6°C 51.6°F10.9°C 96% 6.1 mph SSE9.8 kmh SSE 13.0 mph20.9 kmh 29.82 in1009.8 mb 0.01 in0.3 mm 0.04 in/hr1.0 mm/hr 2.18 in55.4 mm
03:15 PM 52.8°F11.6°C 51.7°F10.9°C 96% 3.7 mph S6.0 kmh S 9.0 mph14.5 kmh 29.82 in1009.8 mb 0.02 in0.5 mm 0.08 in/hr2.0 mm/hr 2.17 in55.1 mm
03:00 PM 52.7°F11.5°C 51.6°F10.9°C 96% 3.2 mph SSE5.1 kmh SSE 6.0 mph9.7 kmh 29.83 in1010.2 mb 0.02 in0.5 mm 0.03 in/hr0.8 mm/hr 2.15 in54.6 mm
02:45 PM 52.7°F11.5°C 51.6°F10.9°C 96% 5.5 mph SE8.9 kmh SE 10.0 mph16.1 kmh 29.83 in1010.2 mb 0.02 in0.5 mm 0.08 in/hr2.0 mm/hr 2.13 in54.1 mm
02:30 PM 52.6°F11.4°C 51.2°F10.7°C 95% 5.7 mph SSE9.2 kmh SSE 12.0 mph19.3 kmh 29.83 in1010.2 mb 0.04 in1.0 mm 0.16 in/hr4.1 mm/hr 2.11 in53.6 mm
02:15 PM 52.7°F11.5°C 51.3°F10.7°C 95% 7.1 mph SE11.4 kmh SE 11.0 mph17.7 kmh 29.83 in1010.2 mb 0.02 in0.5 mm 0.08 in/hr2.0 mm/hr 2.07 in52.6 mm
02:00 PM 52.6°F11.4°C 51.2°F10.7°C 95% 3.6 mph SE5.8 kmh SE 12.0 mph19.3 kmh 29.83 in1010.2 mb 0.04 in1.0 mm 0.05 in/hr1.3 mm/hr 2.06 in52.3 mm
01:45 PM 52.5°F11.4°C 51.1°F10.6°C 95% 3.7 mph S6.0 kmh S 8.0 mph12.9 kmh 29.84 in1010.5 mb 0.04 in1.0 mm 0.16 in/hr4.1 mm/hr 2.02 in51.3 mm
01:30 PM 52.4°F11.3°C 51.0°F10.6°C 95% 3.8 mph SSE6.1 kmh SSE 6.0 mph9.7 kmh 29.84 in1010.5 mb 0.01 in0.3 mm 0.04 in/hr1.0 mm/hr 1.98 in50.3 mm
01:15 PM 52.3°F11.3°C 50.9°F10.5°C 95% 2.2 mph E3.5 kmh E 3.0 mph4.8 kmh 29.84 in1010.5 mb 0.01 in0.3 mm 0.04 in/hr1.0 mm/hr 1.98 in50.3 mm
01:00 PM 52.2°F11.2°C 50.8°F10.4°C 95% 7.2 mph SSE11.6 kmh SSE 13.0 mph20.9 kmh 29.85 in1010.8 mb 0.00 in0.0 mm 0.00 in/hr0.0 mm/hr 1.97 in50.0 mm
12:45 PM 52.0°F11.1°C 50.6°F10.3°C 95% 5.2 mph SE8.4 kmh SE 10.0 mph16.1 kmh 29.86 in1011.2 mb 0.01 in0.3 mm 0.04 in/hr1.0 mm/hr 1.97 in50.0 mm
12:30 PM 51.8°F11.0°C 50.5°F10.3°C 95% 3.8 mph SE6.1 kmh SE 12.0 mph19.3 kmh 29.86 in1011.2 mb 0.01 in0.3 mm 0.04 in/hr1.0 mm/hr 1.96 in49.8 mm
12:15 PM 51.6°F10.9°C 50.2°F10.1°C 95% 8.6 mph SE13.8 kmh SE 14.0 mph22.5 kmh 29.87 in1011.5 mb 0.01 in0.3 mm 0.04 in/hr1.0 mm/hr 1.95 in49.5 mm
12:00 PM 51.4°F10.8°C 50.0°F10.0°C 95% 5.1 mph SE8.2 kmh SE 13.0 mph20.9 kmh 29.87 in1011.5 mb 0.01 in0.3 mm 0.00 in/hr0.0 mm/hr 1.95 in49.5 mm